Time;durP1;ratioP1;P1;durP2;ratioP2;P2;SDS_P1;SDS_P2;PMS_P1;PMS_P2;Temp;Humidity;BMP_temperature;BMP_pressure;BME280_temperature;BME280_humidity;BME280_pressure;Samples;Min_cycle;Max_cycle;Signal;HPM_P1;HPM_P2
2023/09/16 00:02:23;;;;;;;7.50;5.90;;;;;;;16.21;93.37;96010.14;106669;1276;22675;-76
2023/09/16 00:04:51;;;;;;;7.00;6.00;;;;;;;16.15;93.30;96008.04;106789;1275;22672;-76
2023/09/16 00:07:21;;;;;;;7.90;6.40;;;;;;;16.15;93.59;96001.82;106713;1276;24436;-76
2023/09/16 00:09:50;;;;;;;8.00;6.30;;;;;;;16.19;93.79;96000.27;106716;1275;24275;-76
2023/09/16 00:12:18;;;;;;;6.30;5.70;;;;;;;16.22;93.81;96001.40;106589;1276;22526;-76
2023/09/16 00:14:46;;;;;;;6.00;5.40;;;;;;;16.28;93.81;95998.56;106626;1276;24192;-76
2023/09/16 00:17:14;;;;;;;8.10;5.40;;;;;;;16.33;93.82;95998.53;106667;1276;25616;-77
2023/09/16 00:19:43;;;;;;;7.60;5.30;;;;;;;16.37;93.31;95998.95;106571;1276;22539;-76
2023/09/16 00:22:14;;;;;;;5.80;5.00;;;;;;;16.40;93.41;95997.05;106739;1276;25473;-77
2023/09/16 00:24:42;;;;;;;6.10;5.20;;;;;;;16.44;93.19;95998.88;106719;1276;24253;-77
2023/09/16 00:27:10;;;;;;;8.80;5.30;;;;;;;16.49;93.39;95996.39;106597;1276;25436;-77
2023/09/16 00:29:38;;;;;;;7.20;5.10;;;;;;;16.55;92.85;95996.89;106834;1276;22531;-77
2023/09/16 00:32:07;;;;;;;8.70;4.80;;;;;;;16.57;92.79;95995.38;106685;1276;25508;-77
2023/09/16 00:34:35;;;;;;;6.30;5.30;;;;;;;16.56;92.37;95991.16;106583;1275;22530;-77
2023/09/16 00:37:03;;;;;;;6.70;5.10;;;;;;;16.56;92.27;95994.36;106496;1276;22538;-77
2023/09/16 00:39:32;;;;;;;7.90;5.50;;;;;;;16.54;91.92;95996.56;106587;1276;24383;-77
2023/09/16 00:42:00;;;;;;;7.90;5.50;;;;;;;16.51;91.59;95996.52;106785;1276;22544;-77
2023/09/16 00:44:28;;;;;;;5.90;5.10;;;;;;;16.39;90.88;95997.45;106623;1276;24277;-76
2023/09/16 00:46:56;;;;;;;6.20;4.90;;;;;;;16.31;91.70;95997.73;106567;1276;24405;-76
2023/09/16 00:49:28;;;;;;;5.60;4.60;;;;;;;16.36;92.28;95999.50;106612;1276;22665;-76
2023/09/16 00:51:57;;;;;;;6.00;4.60;;;;;;;16.40;92.24;95999.38;106713;1276;22672;-76
2023/09/16 00:54:26;;;;;;;6.20;5.00;;;;;;;16.34;91.22;95998.51;106611;1276;25246;-77
2023/09/16 00:56:58;;;;;;;12.20;5.40;;;;;;;16.26;91.25;95997.04;106615;1276;22530;-76
2023/09/16 00:59:28;;;;;;;7.30;4.20;;;;;;;16.22;91.55;95994.14;106652;1276;22524;-76
2023/09/16 01:01:56;;;;;;;7.40;4.50;;;;;;;16.18;91.62;95996.92;106848;1276;22528;-77
2023/09/16 01:04:25;;;;;;;6.60;5.20;;;;;;;16.10;91.63;95996.70;106592;1276;25346;-77
2023/09/16 01:06:53;;;;;;;7.20;4.20;;;;;;;16.03;91.72;95993.20;106599;1276;25398;-77
2023/09/16 01:09:22;;;;;;;5.90;4.90;;;;;;;15.94;91.46;95994.55;106622;1276;25401;-77
2023/09/16 01:11:50;;;;;;;10.50;4.40;;;;;;;15.83;91.71;95992.27;106617;1276;24479;-77
2023/09/16 01:14:18;;;;;;;6.10;4.60;;;;;;;15.75;91.90;95990.92;106634;1276;24365;-76
2023/09/16 01:16:57;;;;;;;6.30;4.10;;;;;;;15.73;92.18;95995.24;106807;1276;25422;-76
2023/09/16 01:19:41;;;;;;;4.70;4.20;;;;;;;15.68;92.45;95994.65;106636;1276;25495;-77
2023/09/16 01:22:10;;;;;;;5.50;3.90;;;;;;;15.61;93.03;95995.56;106583;1276;22527;-76
2023/09/16 01:24:40;;;;;;;6.40;3.90;;;;;;;15.60;93.37;96002.70;106640;1276;23913;-77
2023/09/16 01:27:08;;;;;;;8.60;4.30;;;;;;;15.60;93.27;96004.48;106656;1276;25381;-76
2023/09/16 01:29:37;;;;;;;4.50;4.10;;;;;;;15.58;93.34;96002.05;106648;1276;24417;-77
2023/09/16 01:32:07;;;;;;;8.00;4.90;;;;;;;15.62;93.46;95999.46;106652;1275;22647;-77
2023/09/16 01:34:44;;;;;;;8.00;4.20;;;;;;;15.68;93.90;95998.02;106873;1276;22664;-77
2023/09/16 01:37:17;;;;;;;7.80;3.90;;;;;;;15.72;94.16;96003.80;106639;1276;23732;-76
2023/09/16 01:39:52;;;;;;;7.40;4.10;;;;;;;15.74;94.14;96007.45;106786;1276;24457;-77
2023/09/16 01:42:22;;;;;;;7.20;4.00;;;;;;;15.73;94.10;96008.54;106628;1276;26538;-76
2023/09/16 01:44:55;;;;;;;10.80;6.40;;;;;;;15.71;93.79;96012.85;106585;1275;22628;-77
2023/09/16 01:47:24;;;;;;;5.20;4.40;;;;;;;15.73;94.12;96013.85;106698;1276;23856;-77
2023/09/16 01:49:52;;;;;;;6.20;5.60;;;;;;;15.79;94.28;96014.20;106712;1275;22729;-77
2023/09/16 01:52:20;;;;;;;8.70;6.70;;;;;;;15.80;94.20;96014.52;106726;1275;25420;-76
2023/09/16 01:54:48;;;;;;;10.00;7.20;;;;;;;15.85;94.68;96013.11;106756;1276;22629;-75
2023/09/16 01:57:16;;;;;;;10.10;6.40;;;;;;;15.84;93.96;96010.84;106477;1268;24238;-75
2023/09/16 01:59:44;;;;;;;5.90;5.00;;;;;;;15.81;93.92;96009.88;106594;1275;22676;-75
2023/09/16 02:02:13;;;;;;;8.40;4.70;;;;;;;15.81;94.10;96007.05;106600;1276;25287;-76
2023/09/16 02:04:44;;;;;;;6.00;4.50;;;;;;;15.74;93.80;96005.83;106586;1275;24374;-75
2023/09/16 02:07:13;;;;;;;6.90;4.30;;;;;;;15.77;94.37;96009.83;106596;1275;22532;-75
2023/09/16 02:09:42;;;;;;;5.50;4.30;;;;;;;15.78;94.40;96009.98;106607;1276;25295;-76
2023/09/16 02:12:11;;;;;;;5.90;4.00;;;;;;;15.81;94.34;96007.02;106586;1276;24046;-76
2023/09/16 02:14:39;;;;;;;3.80;3.40;;;;;;;15.88;94.46;96011.24;106629;1275;24403;-76
2023/09/16 02:17:08;;;;;;;7.30;4.00;;;;;;;15.92;94.38;96013.07;106578;1275;24303;-76
2023/09/16 02:19:36;;;;;;;6.10;3.50;;;;;;;15.99;94.44;96013.20;106582;1276;22735;-75
2023/09/16 02:22:09;;;;;;;5.40;3.40;;;;;;;15.99;93.60;96012.13;106739;1276;24291;-76
2023/09/16 02:24:37;;;;;;;3.80;3.20;;;;;;;15.97;93.45;96018.91;106570;1276;24399;-76
2023/09/16 02:27:05;;;;;;;4.20;3.70;;;;;;;15.95;93.11;96018.29;106588;1276;24504;-76
2023/09/16 02:29:34;;;;;;;4.20;3.80;;;;;;;15.94;93.43;96022.60;106613;1275;22698;-75
2023/09/16 02:32:02;;;;;;;9.70;4.70;;;;;;;15.92;93.29;96024.95;106615;1275;22663;-75
2023/09/16 02:34:35;;;;;;;5.10;3.70;;;;;;;15.89;93.34;96025.58;106590;1275;22589;-75
2023/09/16 02:37:03;;;;;;;3.40;3.00;;;;;;;15.90;93.71;96025.37;106602;1276;24041;-76
2023/09/16 02:39:32;;;;;;;4.50;3.40;;;;;;;15.95;93.73;96024.15;106532;1275;22521;-76
2023/09/16 02:42:00;;;;;;;11.30;3.20;;;;;;;15.93;92.89;96028.66;106775;1275;22517;-76
2023/09/16 02:44:29;;;;;;;7.30;2.80;;;;;;;15.87;93.28;96024.95;106745;1275;24073;-76
2023/09/16 02:46:57;;;;;;;4.80;3.10;;;;;;;15.90;93.59;96024.14;106695;1275;24376;-76
2023/09/16 02:49:26;;;;;;;3.10;2.80;;;;;;;15.91;93.30;96024.28;106792;1275;22552;-77
2023/09/16 02:51:54;;;;;;;4.50;2.70;;;;;;;15.94;93.39;96024.52;106570;1275;24382;-77
2023/09/16 02:54:22;;;;;;;3.60;3.10;;;;;;;15.93;92.99;96024.91;106600;1275;25638;-77
2023/09/16 02:56:51;;;;;;;4.00;3.20;;;;;;;15.95;93.16;96020.77;106692;1276;22644;-77
2023/09/16 02:59:20;;;;;;;3.50;2.90;;;;;;;15.98;93.38;96023.86;107028;1275;24269;-77
2023/09/16 03:01:48;;;;;;;3.10;2.60;;;;;;;16.02;93.22;96023.91;106686;1275;22673;-76
2023/09/16 03:04:16;;;;;;;5.90;2.60;;;;;;;15.96;92.30;96028.55;106776;1276;24432;-77
2023/09/16 03:06:46;;;;;;;3.40;2.60;;;;;;;15.87;92.75;96025.64;106771;1275;22538;-77
2023/09/16 03:09:14;;;;;;;3.10;2.50;;;;;;;15.82;92.36;96025.11;106611;1276;24877;-77
2023/09/16 03:11:43;;;;;;;4.90;3.00;;;;;;;15.73;93.00;96025.55;106687;1276;22605;-76
2023/09/16 03:14:13;;;;;;;4.90;2.60;;;;;;;15.70;93.28;96027.95;106639;1276;22752;-77
2023/09/16 03:16:42;;;;;;;6.70;2.40;;;;;;;15.69;94.10;96032.05;106660;1275;24221;-76
2023/09/16 03:19:11;;;;;;;3.40;2.00;;;;;;;15.75;94.27;96033.81;106797;1275;25319;-74
2023/09/16 03:21:39;;;;;;;4.30;2.20;;;;;;;15.78;93.86;96031.42;106626;1276;25366;-74
2023/09/16 03:24:07;;;;;;;6.00;2.00;;;;;;;15.79;93.59;96033.16;106628;1276;22530;-74
2023/09/16 03:26:36;;;;;;;5.20;3.00;;;;;;;15.75;93.19;96037.75;106679;1275;25338;-74
2023/09/16 03:29:05;;;;;;;3.80;2.40;;;;;;;15.69;93.28;96039.34;106801;1275;23016;-75
2023/09/16 03:31:33;;;;;;;10.90;2.80;;;;;;;15.65;93.69;96040.68;106820;1275;24485;-76
2023/09/16 03:34:08;;;;;;;4.30;2.20;;;;;;;15.63;94.61;96037.37;106829;1276;25381;-76
2023/09/16 03:36:36;;;;;;;3.50;2.10;;;;;;;15.66;94.42;96039.25;106575;1275;25304;-76
2023/09/16 03:39:05;;;;;;;4.80;2.30;;;;;;;15.69;94.73;96035.95;106644;1276;25313;-75
2023/09/16 03:41:33;;;;;;;7.10;4.10;;;;;;;15.72;94.29;96037.11;106649;1275;25323;-76
2023/09/16 03:44:02;;;;;;;7.00;3.20;;;;;;;15.73;94.04;96035.14;106665;1275;25428;-76
2023/09/16 03:46:31;;;;;;;6.10;2.60;;;;;;;15.68;93.77;96032.44;106650;1276;25459;-76
2023/09/16 03:49:02;;;;;;;6.40;3.00;;;;;;;15.66;93.87;96031.96;106637;1275;24450;-76
2023/09/16 03:51:30;;;;;;;5.20;3.50;;;;;;;15.68;93.74;96035.80;106650;1275;24457;-76
2023/09/16 03:54:03;;;;;;;3.60;2.30;;;;;;;15.68;94.08;96038.83;106659;1275;22548;-76
2023/09/16 03:56:33;;;;;;;4.90;1.90;;;;;;;15.65;94.00;96040.70;106518;1275;25454;-76
2023/09/16 03:59:01;;;;;;;4.80;2.30;;;;;;;15.59;93.93;96044.22;106702;1275;22587;-76
2023/09/16 04:01:30;;;;;;;3.90;2.00;;;;;;;15.60;94.41;96045.98;106625;1276;22642;-75
2023/09/16 04:03:58;;;;;;;2.60;2.20;;;;;;;15.63;94.34;96044.14;106591;1275;24853;-76
2023/09/16 04:06:26;;;;;;;3.90;2.20;;;;;;;15.60;94.17;96045.27;106638;1275;22532;-76
2023/09/16 04:08:54;;;;;;;2.80;1.90;;;;;;;15.54;94.07;96044.39;106686;1273;24458;-76
2023/09/16 04:11:22;;;;;;;3.90;1.90;;;;;;;15.47;94.07;96049.73;106557;1276;24236;-76
2023/09/16 04:13:50;;;;;;;4.70;2.10;;;;;;;15.45;94.79;96045.04;106623;1276;23892;-76
2023/09/16 04:16:19;;;;;;;5.50;3.20;;;;;;;15.50;95.54;96051.62;106611;1265;25292;-76
2023/09/16 04:18:48;;;;;;;4.00;2.80;;;;;;;15.61;95.75;96054.27;106605;1276;25435;-76
2023/09/16 04:21:16;;;;;;;3.40;2.40;;;;;;;15.67;94.94;96051.63;106593;1275;24371;-76
2023/09/16 04:23:44;;;;;;;4.20;2.80;;;;;;;15.74;94.85;96046.64;106871;1275;25371;-75
2023/09/16 04:26:15;;;;;;;9.70;4.30;;;;;;;15.70;93.75;96044.63;106585;1275;23921;-76
2023/09/16 04:28:44;;;;;;;9.60;3.70;;;;;;;15.69;93.93;96045.16;106645;1272;25717;-75
2023/09/16 04:31:13;;;;;;;6.60;3.20;;;;;;;15.69;93.84;96046.77;106555;1276;22758;-76
2023/09/16 04:33:41;;;;;;;3.40;3.10;;;;;;;15.72;93.99;96050.44;106625;1275;25623;-75
2023/09/16 04:36:11;;;;;;;7.20;3.20;;;;;;;15.75;93.75;96054.75;106638;1276;22640;-75
2023/09/16 04:38:39;;;;;;;8.10;4.60;;;;;;;15.77;93.40;96061.44;106575;1276;25295;-75
2023/09/16 04:41:07;;;;;;;9.40;4.00;;;;;;;15.82;93.64;96063.26;106639;1275;22785;-75
2023/09/16 04:43:36;;;;;;;14.20;6.10;;;;;;;15.83;92.85;96060.75;106605;1275;23026;-75
2023/09/16 04:46:06;;;;;;;9.80;4.60;;;;;;;15.87;93.53;96060.08;106589;1275;22589;-75
2023/09/16 04:48:42;;;;;;;12.20;5.50;;;;;;;15.94;92.98;96065.31;106650;1275;25507;-76
2023/09/16 04:51:11;;;;;;;14.40;6.00;;;;;;;15.90;92.24;96064.56;106725;1276;22532;-76
2023/09/16 04:53:39;;;;;;;7.90;4.90;;;;;;;15.88;92.38;96063.92;106773;1265;22526;-76
2023/09/16 04:56:10;;;;;;;16.40;4.40;;;;;;;15.84;92.40;96067.42;107188;1275;23888;-77
2023/09/16 04:58:42;;;;;;;6.00;2.80;;;;;;;15.80;92.58;96065.98;106728;1275;24400;-76
2023/09/16 05:01:11;;;;;;;10.30;3.60;;;;;;;15.82;92.93;96073.16;106623;1275;25638;-76
2023/09/16 05:03:40;;;;;;;7.10;4.20;;;;;;;15.86;92.87;96068.97;106951;1275;22618;-77
2023/09/16 05:06:08;;;;;;;8.50;4.70;;;;;;;15.91;92.89;96071.11;106790;1275;25291;-76
2023/09/16 05:08:37;;;;;;;11.50;4.90;;;;;;;15.97;93.09;96069.84;106659;1276;25478;-76
2023/09/16 05:11:05;;;;;;;10.00;4.60;;;;;;;16.07;93.48;96068.45;106740;1275;25498;-76
2023/09/16 05:13:54;;;;;;;7.60;4.40;;;;;;;16.27;93.71;96071.02;106671;1260;24311;-77
2023/09/16 05:16:22;;;;;;;5.70;3.30;;;;;;;16.31;92.18;96073.16;106623;1276;24849;-76
2023/09/16 05:18:51;;;;;;;9.50;3.20;;;;;;;16.25;91.58;96074.80;106467;1275;242173;-74
2023/09/16 05:21:20;;;;;;;5.40;3.20;;;;;;;16.19;91.71;96072.52;106611;1275;24292;-74
2023/09/16 05:23:52;;;;;;;10.40;4.10;;;;;;;16.19;92.16;96071.09;106659;1275;23785;-74
2023/09/16 05:26:22;;;;;;;7.30;4.60;;;;;;;16.25;92.76;96074.27;106621;1275;25526;-74
2023/09/16 05:28:50;;;;;;;7.10;4.20;;;;;;;16.32;92.56;96080.59;106620;1275;25474;-74
2023/09/16 05:31:19;;;;;;;6.40;3.70;;;;;;;16.39;92.55;96080.88;106635;1275;22532;-76
2023/09/16 05:33:50;;;;;;;11.10;5.90;;;;;;;16.40;91.93;96078.72;106607;1275;22642;-75
2023/09/16 05:36:20;;;;;;;7.70;5.90;;;;;;;16.47;92.43;96077.61;106633;1275;22576;-76
2023/09/16 05:38:48;;;;;;;7.40;4.40;;;;;;;16.56;92.48;96079.08;106704;1275;23006;-75
2023/09/16 05:41:16;;;;;;;5.50;4.30;;;;;;;16.66;92.41;96075.18;106623;1275;22535;-76
2023/09/16 05:43:45;;;;;;;6.20;4.30;;;;;;;16.75;91.79;96072.23;106606;1275;25295;-76
2023/09/16 05:46:13;;;;;;;9.70;6.50;;;;;;;16.80;91.32;96068.68;106531;1275;25463;-76
2023/09/16 05:48:42;;;;;;;9.50;6.60;;;;;;;16.86;91.07;96072.38;106577;1275;22527;-76
2023/09/16 05:51:11;;;;;;;8.60;6.10;;;;;;;16.91;90.64;96071.67;106638;1275;25516;-76
2023/09/16 05:53:41;;;;;;;12.00;6.30;;;;;;;16.91;90.32;96071.67;106632;1253;25343;-76
2023/09/16 05:56:10;;;;;;;11.10;7.30;;;;;;;16.94;90.27;96074.41;106620;1270;24235;-76
2023/09/16 05:58:42;;;;;;;11.10;6.40;;;;;;;16.98;90.23;96076.39;106569;1275;22526;-75
2023/09/16 06:01:11;;;;;;;7.80;5.30;;;;;;;16.98;89.51;96079.80;106632;1275;25495;-76
2023/09/16 06:03:39;;;;;;;8.10;5.50;;;;;;;16.94;89.28;96085.60;106776;1276;23143;-76
2023/09/16 06:06:08;;;;;;;5.90;5.30;;;;;;;16.91;89.13;96089.80;106871;1275;22523;-76
2023/09/16 06:08:36;;;;;;;8.80;5.50;;;;;;;16.93;89.61;96094.89;106650;1275;24271;-76
2023/09/16 06:11:05;;;;;;;5.70;4.80;;;;;;;17.00;90.15;96089.66;106788;1275;24249;-77
2023/09/16 06:13:33;;;;;;;7.20;5.00;;;;;;;17.07;89.59;96090.98;106941;1275;25257;-77
2023/09/16 06:16:01;;;;;;;8.60;4.60;;;;;;;17.16;89.93;96088.21;106622;1275;22655;-77
2023/09/16 06:18:34;;;;;;;5.70;3.90;;;;;;;17.22;89.35;96082.98;106684;1275;25383;-77
2023/09/16 06:21:03;;;;;;;5.50;3.80;;;;;;;17.24;88.75;96083.96;106634;1275;25390;-77
2023/09/16 06:23:31;;;;;;;3.50;3.00;;;;;;;17.29;88.93;96084.14;106627;1275;22634;-77
2023/09/16 06:25:59;;;;;;;4.80;3.50;;;;;;;17.35;88.42;96089.80;106609;1275;25352;-77
2023/09/16 06:28:28;;;;;;;5.00;3.30;;;;;;;17.36;88.14;96094.20;106724;1275;22539;-77
2023/09/16 06:30:56;;;;;;;4.70;3.20;;;;;;;17.38;87.97;96097.50;106670;1275;22606;-77
2023/09/16 06:33:24;;;;;;;4.50;4.10;;;;;;;17.40;87.67;96096.73;106711;1275;25353;-77
2023/09/16 06:35:53;;;;;;;5.30;4.30;;;;;;;17.42;87.98;96096.11;106799;1275;22541;-77
2023/09/16 06:38:21;;;;;;;6.10;4.20;;;;;;;17.47;88.04;96096.79;106609;1275;22533;-77
2023/09/16 06:40:49;;;;;;;4.30;3.80;;;;;;;17.51;87.49;96098.25;106691;1275;25259;-77
2023/09/16 06:43:18;;;;;;;7.00;4.70;;;;;;;17.60;87.96;96102.38;106797;1275;22545;-77
2023/09/16 06:45:48;;;;;;;5.20;3.80;;;;;;;17.67;87.14;96106.19;106580;1275;25500;-77
2023/09/16 06:48:16;;;;;;;6.50;4.30;;;;;;;17.68;86.38;96110.61;106903;1275;22891;-77
2023/09/16 06:50:45;;;;;;;5.00;4.40;;;;;;;17.71;86.47;96115.30;106811;1275;23144;-77
2023/09/16 06:53:13;;;;;;;5.40;4.60;;;;;;;17.74;86.07;96110.70;106721;1275;24515;-78
2023/09/16 06:55:41;;;;;;;6.90;4.30;;;;;;;17.77;85.71;96109.73;106799;1262;22657;-77
2023/09/16 06:58:09;;;;;;;5.70;4.80;;;;;;;17.79;85.45;96102.89;106845;1275;24244;-77
2023/09/16 07:00:37;;;;;;;5.30;4.50;;;;;;;17.82;85.46;96110.44;106671;1275;22648;-77
2023/09/16 07:03:05;;;;;;;5.20;4.10;;;;;;;17.87;85.28;96111.33;106738;1275;22531;-77
2023/09/16 07:05:34;;;;;;;5.50;4.60;;;;;;;17.89;84.74;96118.19;106899;1275;24226;-78
2023/09/16 07:08:03;;;;;;;4.80;4.20;;;;;;;17.86;84.40;96118.67;106904;1275;25466;-78
2023/09/16 07:10:31;;;;;;;4.70;4.20;;;;;;;17.86;84.49;96123.11;106702;1275;25681;-78
2023/09/16 07:12:59;;;;;;;5.60;4.10;;;;;;;17.78;83.40;96123.57;106499;1275;22567;-78
2023/09/16 07:15:27;;;;;;;5.70;4.00;;;;;;;17.74;84.25;96127.81;106644;1275;22545;-78
2023/09/16 07:17:55;;;;;;;4.40;4.00;;;;;;;17.77;84.71;96127.72;106790;1275;24876;-78
2023/09/16 07:20:24;;;;;;;5.60;4.00;;;;;;;17.78;84.56;96134.27;106586;1275;22526;-78
2023/09/16 07:22:52;;;;;;;4.40;4.00;;;;;;;17.82;84.83;96133.41;106620;1275;22664;-77
2023/09/16 07:25:21;;;;;;;5.60;4.30;;;;;;;17.85;84.53;96132.41;106675;1275;25443;-78
2023/09/16 07:27:49;;;;;;;5.00;3.90;;;;;;;17.91;85.12;96137.33;106750;1275;25534;-75
2023/09/16 07:30:22;;;;;;;5.80;3.80;;;;;;;18.00;84.78;96131.62;106646;1275;25727;-77
2023/09/16 07:32:50;;;;;;;4.70;3.80;;;;;;;18.11;84.08;96136.05;106582;1275;25314;-76
2023/09/16 07:35:19;;;;;;;4.70;3.80;;;;;;;18.12;83.73;96134.72;106613;1275;22645;-76
2023/09/16 07:37:47;;;;;;;5.00;3.60;;;;;;;18.12;83.83;96134.89;106679;1275;22533;-77
2023/09/16 07:40:15;;;;;;;10.00;3.90;;;;;;;18.20;84.01;96132.61;106978;1275;25532;-77
2023/09/16 07:42:43;;;;;;;5.30;3.40;;;;;;;18.29;83.70;96134.58;106804;1275;25459;-76
2023/09/16 07:45:12;;;;;;;4.70;3.50;;;;;;;18.36;83.41;96129.30;106687;1275;22537;-76
2023/09/16 07:47:40;;;;;;;4.50;3.20;;;;;;;18.43;82.95;96132.96;106953;1275;22571;-76
2023/09/16 07:50:08;;;;;;;6.20;3.70;;;;;;;18.50;82.69;96131.26;106902;1275;22535;-76
2023/09/16 07:52:37;;;;;;;4.30;3.90;;;;;;;18.40;81.75;96133.59;106619;1275;22822;-76
2023/09/16 07:55:07;;;;;;;6.70;4.60;;;;;;;18.41;82.37;96132.85;106617;1275;24258;-77
2023/09/16 07:57:36;;;;;;;5.70;3.70;;;;;;;18.50;82.32;96135.86;106683;1275;25361;-76
2023/09/16 08:00:07;;;;;;;4.50;4.00;;;;;;;18.61;82.80;96136.85;106771;1275;24216;-76
2023/09/16 08:02:41;;;;;;;7.20;6.60;;;;;;;18.67;81.36;96135.00;106594;1275;22520;-77
2023/09/16 08:05:09;;;;;;;4.80;4.40;;;;;;;18.71;81.98;96131.78;106633;1275;25437;-80
2023/09/16 08:07:38;;;;;;;7.70;4.60;;;;;;;18.84;81.73;96134.11;106608;1262;23019;-77
2023/09/16 08:10:06;;;;;;;4.60;4.10;;;;;;;18.92;80.95;96127.91;106622;1275;22750;-78
2023/09/16 08:12:35;;;;;;;4.40;4.00;;;;;;;18.93;80.50;96132.65;106680;1275;22698;-77
2023/09/16 08:15:06;;;;;;;4.60;4.10;;;;;;;18.92;80.22;96132.16;106662;1275;22750;-78
2023/09/16 08:17:37;;;;;;;6.30;3.90;;;;;;;18.95;80.08;96128.84;106934;1264;24377;-77
2023/09/16 08:20:08;;;;;;;6.30;4.00;;;;;;;19.13;80.87;96131.79;106692;1275;24251;-77
2023/09/16 08:22:36;;;;;;;4.70;3.70;;;;;;;19.39;80.79;96132.96;106682;1275;25418;-77
2023/09/16 08:25:05;;;;;;;4.20;3.80;;;;;;;19.55;79.45;96132.95;106604;1275;24421;-77
2023/09/16 08:27:33;;;;;;;5.10;3.80;;;;;;;19.56;77.86;96132.56;106787;1275;24719;-77
2023/09/16 08:30:01;;;;;;;4.30;3.90;;;;;;;19.52;77.43;96136.33;106636;1275;22546;-77
2023/09/16 08:32:30;;;;;;;4.90;3.70;;;;;;;19.51;77.81;96137.46;106615;1275;25282;-76
2023/09/16 08:34:58;;;;;;;6.00;4.40;;;;;;;19.47;77.77;96141.38;106627;1275;22580;-77
2023/09/16 08:37:26;;;;;;;4.60;4.00;;;;;;;19.49;78.69;96143.76;106920;1275;25525;-78
2023/09/16 08:39:54;;;;;;;6.00;3.80;;;;;;;19.50;78.59;96147.98;106789;1275;22943;-77
2023/09/16 08:42:35;;;;;;;5.90;3.70;;;;;;;19.46;77.82;96146.02;107025;1275;22531;-78
2023/09/16 08:45:06;;;;;;;4.30;3.90;;;;;;;19.60;79.24;96138.46;106830;1275;22530;-77
2023/09/16 08:47:42;;;;;;;5.20;4.20;;;;;;;19.86;77.76;96136.56;107037;1275;25429;-78
2023/09/16 08:50:11;;;;;;;7.20;4.30;;;;;;;20.01;77.63;96132.66;106656;1275;23894;-76
2023/09/16 08:52:55;;;;;;;4.60;4.10;;;;;;;20.18;77.05;96134.55;106626;1275;23899;-77
2023/09/16 08:55:23;;;;;;;4.60;4.20;;;;;;;20.30;76.87;96134.50;106743;1275;24229;-77
2023/09/16 08:58:00;;;;;;;4.60;4.10;;;;;;;20.32;76.82;96137.57;106660;1275;25339;-78
2023/09/16 09:00:30;;;;;;;4.80;4.00;;;;;;;20.37;76.66;96135.94;106970;1275;22477;-77
2023/09/16 09:02:58;;;;;;;5.00;3.70;;;;;;;20.42;76.52;96137.52;106752;1275;25294;-77
2023/09/16 09:05:28;;;;;;;4.70;4.00;;;;;;;20.33;75.22;96135.21;106634;1275;23024;-77
2023/09/16 09:07:58;;;;;;;5.20;4.40;;;;;;;20.22;75.76;96138.98;106652;1275;22743;-78
2023/09/16 09:10:27;;;;;;;4.80;4.20;;;;;;;20.08;75.99;96133.56;106649;1275;24286;-77
2023/09/16 09:12:58;;;;;;;8.50;4.00;;;;;;;20.10;76.73;96138.48;106679;1275;24229;-77
2023/09/16 09:15:27;;;;;;;5.90;4.80;;;;;;;20.11;76.68;96137.38;106709;1275;25236;-77
2023/09/16 09:17:57;;;;;;;5.10;3.70;;;;;;;20.12;77.49;96135.16;106630;1275;22615;-78
2023/09/16 09:20:27;;;;;;;5.10;4.00;;;;;;;20.11;76.54;96132.53;106705;1275;24286;-77
2023/09/16 09:22:57;;;;;;;4.30;3.80;;;;;;;20.08;76.48;96130.90;106685;1275;22652;-78
2023/09/16 09:25:27;;;;;;;6.30;4.10;;;;;;;20.09;76.75;96129.77;106727;1275;22524;-77
2023/09/16 09:27:57;;;;;;;5.60;4.20;;;;;;;20.24;77.09;96134.61;106710;1275;22596;-77
2023/09/16 09:30:29;;;;;;;5.70;3.70;;;;;;;20.43;77.52;96129.01;106727;1275;23917;-75
2023/09/16 09:32:59;;;;;;;4.40;4.00;;;;;;;20.54;75.51;96131.17;106578;1275;22617;-75
2023/09/16 09:35:30;;;;;;;4.20;3.50;;;;;;;20.63;76.18;96132.02;106588;1275;22546;-75
2023/09/16 09:37:58;;;;;;;4.20;3.40;;;;;;;20.66;75.82;96132.42;106685;1275;24249;-76
2023/09/16 09:40:28;;;;;;;4.20;3.80;;;;;;;20.70;75.60;96131.29;106641;1275;23726;-76
2023/09/16 09:42:56;;;;;;;4.60;4.20;;;;;;;20.85;75.03;96134.34;106660;1275;22540;-76
2023/09/16 09:45:25;;;;;;;5.50;4.10;;;;;;;20.98;74.77;96131.50;106675;1275;24251;-76
2023/09/16 09:47:55;;;;;;;5.60;3.90;;;;;;;20.95;74.54;96133.60;106640;1275;23742;-75
2023/09/16 09:50:23;;;;;;;5.50;4.30;;;;;;;20.98;75.28;96139.05;106666;1275;24210;-76
2023/09/16 09:52:54;;;;;;;6.40;4.90;;;;;;;20.97;75.43;96139.77;106703;1275;22547;-76
2023/09/16 09:55:27;;;;;;;4.50;4.10;;;;;;;20.89;75.57;96140.02;106685;1275;25308;-76
2023/09/16 09:57:55;;;;;;;5.30;4.50;;;;;;;20.80;75.72;96141.51;106707;1275;22652;-76
2023/09/16 10:00:24;;;;;;;6.00;4.30;;;;;;;20.68;75.29;96141.59;106668;1275;22764;-76
2023/09/16 10:02:52;;;;;;;5.40;4.90;;;;;;;20.55;75.67;96141.70;106640;1275;22639;-76
2023/09/16 10:05:23;;;;;;;5.70;4.70;;;;;;;20.45;76.30;96141.26;106771;1275;22516;-76
2023/09/16 10:07:52;;;;;;;5.50;4.90;;;;;;;20.39;76.67;96142.10;106720;1275;22524;-76
2023/09/16 10:10:25;;;;;;;5.20;4.60;;;;;;;20.33;76.64;96141.84;106641;1275;22558;-76
2023/09/16 10:12:55;;;;;;;7.90;4.80;;;;;;;20.25;76.82;96140.77;106702;1275;24439;-76
2023/09/16 10:15:25;;;;;;;5.30;4.70;;;;;;;20.18;77.34;96135.78;106659;1275;22530;-76
2023/09/16 10:17:56;;;;;;;7.70;5.50;;;;;;;20.13;77.34;96134.06;106704;1275;24255;-76
2023/09/16 10:20:27;;;;;;;6.20;5.20;;;;;;;20.11;77.76;96135.06;106744;1275;22787;-76
2023/09/16 10:22:57;;;;;;;5.60;4.50;;;;;;;20.08;78.45;96132.33;106656;1275;22530;-76
2023/09/16 10:25:28;;;;;;;5.40;4.70;;;;;;;20.05;78.61;96137.65;106701;1275;22537;-76
2023/09/16 10:28:04;;;;;;;6.20;4.80;;;;;;;20.00;78.64;96136.79;106703;1275;25638;-77
2023/09/16 10:30:34;;;;;;;5.60;4.90;;;;;;;19.95;78.43;96136.31;106666;1275;22545;-76
2023/09/16 10:33:08;;;;;;;7.00;6.20;;;;;;;19.91;79.28;96131.88;106671;1275;24249;-76
2023/09/16 10:35:39;;;;;;;8.20;6.30;;;;;;;19.90;79.88;96128.00;106692;1275;22539;-76
2023/09/16 10:38:11;;;;;;;6.00;4.70;;;;;;;19.91;80.25;96131.36;106637;1275;24265;-76
2023/09/16 10:40:39;;;;;;;6.80;5.00;;;;;;;19.90;79.78;96135.14;106710;1275;22541;-76
2023/09/16 10:43:08;;;;;;;6.90;4.80;;;;;;;19.80;79.69;96132.19;106716;1268;22542;-77
2023/09/16 10:45:37;;;;;;;9.10;5.00;;;;;;;19.78;80.01;96130.70;106669;1275;22579;-76
2023/09/16 10:48:06;;;;;;;5.60;4.50;;;;;;;19.74;79.84;96129.45;106670;1275;22523;-76
2023/09/16 10:50:38;;;;;;;4.70;3.90;;;;;;;19.75;80.03;96130.45;106639;1275;26859;-77
2023/09/16 10:53:26;;;;;;;6.70;4.80;;;;;;;19.73;79.76;96130.05;106648;1275;24220;-77
2023/09/16 10:56:00;;;;;;;13.20;5.80;;;;;;;19.79;81.43;96129.58;106682;1275;25501;-77
2023/09/16 10:58:47;;;;;;;7.90;5.60;;;;;;;19.92;82.45;96127.16;106670;1275;22523;-77
2023/09/16 11:01:53;;;;;;;6.00;4.80;;;;;;;20.12;82.66;96123.23;106687;1275;24348;-78
2023/09/16 11:04:23;;;;;;;5.30;4.70;;;;;;;20.11;82.79;96118.11;106503;1275;25546;-78
2023/09/16 11:06:57;;;;;;;6.20;4.80;;;;;;;20.09;82.91;96115.48;106650;1275;24022;-78
2023/09/16 11:09:26;;;;;;;7.20;4.60;;;;;;;20.06;81.65;96115.09;106726;1275;25918;-78
2023/09/16 11:11:56;;;;;;;6.30;4.10;;;;;;;20.08;82.08;96110.73;106659;1275;24286;-78
2023/09/16 11:14:24;;;;;;;7.40;4.60;;;;;;;20.11;83.15;96109.66;106718;1275;22652;-78
2023/09/16 11:16:54;;;;;;;4.90;4.20;;;;;;;20.16;83.14;96108.90;106661;1275;22531;-78
2023/09/16 11:19:24;;;;;;;4.90;4.40;;;;;;;20.14;82.61;96109.33;106648;1275;24089;-78
2023/09/16 11:21:53;;;;;;;8.00;4.20;;;;;;;20.14;82.71;96110.45;106733;1275;25568;-79
2023/09/16 11:24:21;;;;;;;5.70;4.50;;;;;;;20.08;82.88;96110.20;106699;1275;24379;-78
2023/09/16 11:26:51;;;;;;;6.30;5.20;;;;;;;20.05;83.06;96111.02;106691;1275;22606;-78
2023/09/16 11:29:22;;;;;;;5.30;4.80;;;;;;;20.03;83.14;96110.95;106714;1275;26158;-78
2023/09/16 11:31:53;;;;;;;9.10;4.70;;;;;;;19.96;83.37;96116.46;106666;1275;25294;-78
2023/09/16 11:34:26;;;;;;;6.30;5.40;;;;;;;19.92;84.23;96117.21;106610;1275;22573;-78
2023/09/16 11:37:01;;;;;;;5.90;5.30;;;;;;;19.88;83.99;96115.40;106717;1262;24297;-77